sensor_id;sensor_type;location;lat;lon;timestamp;temperature;humidity
24426;DHT22;12611;44.446;26.000;2023-04-24T00:00:23;16.60;72.40
24426;DHT22;12611;44.446;26.000;2023-04-24T00:02:52;16.60;72.50
24426;DHT22;12611;44.446;26.000;2023-04-24T00:05:24;16.60;72.50
24426;DHT22;12611;44.446;26.000;2023-04-24T00:07:53;16.50;72.50
24426;DHT22;12611;44.446;26.000;2023-04-24T00:10:22;16.50;72.50
24426;DHT22;12611;44.446;26.000;2023-04-24T00:12:51;16.50;72.70
24426;DHT22;12611;44.446;26.000;2023-04-24T00:15:20;16.50;72.70
24426;DHT22;12611;44.446;26.000;2023-04-24T00:17:48;16.50;72.80
24426;DHT22;12611;44.446;26.000;2023-04-24T00:20:17;16.40;72.90
24426;DHT22;12611;44.446;26.000;2023-04-24T00:22:45;16.40;73.10
24426;DHT22;12611;44.446;26.000;2023-04-24T00:25:14;16.40;73.10
24426;DHT22;12611;44.446;26.000;2023-04-24T00:27:42;16.40;73.30
24426;DHT22;12611;44.446;26.000;2023-04-24T00:30:12;16.40;73.60
24426;DHT22;12611;44.446;26.000;2023-04-24T00:32:41;16.30;73.70
24426;DHT22;12611;44.446;26.000;2023-04-24T00:35:09;16.30;73.80
24426;DHT22;12611;44.446;26.000;2023-04-24T00:37:38;16.30;73.90
24426;DHT22;12611;44.446;26.000;2023-04-24T00:40:07;16.20;74.00
24426;DHT22;12611;44.446;26.000;2023-04-24T00:42:35;16.20;74.00
24426;DHT22;12611;44.446;26.000;2023-04-24T00:45:05;16.20;74.10
24426;DHT22;12611;44.446;26.000;2023-04-24T00:47:35;16.20;74.30
24426;DHT22;12611;44.446;26.000;2023-04-24T00:50:05;16.20;74.60
24426;DHT22;12611;44.446;26.000;2023-04-24T00:52:34;16.10;74.70
24426;DHT22;12611;44.446;26.000;2023-04-24T00:55:03;16.10;74.90
24426;DHT22;12611;44.446;26.000;2023-04-24T00:57:32;16.10;75.80
24426;DHT22;12611;44.446;26.000;2023-04-24T01:00:01;16.00;75.70
24426;DHT22;12611;44.446;26.000;2023-04-24T01:02:30;15.90;75.90
24426;DHT22;12611;44.446;26.000;2023-04-24T01:05:03;15.90;76.10
24426;DHT22;12611;44.446;26.000;2023-04-24T01:07:32;15.80;76.10
24426;DHT22;12611;44.446;26.000;2023-04-24T01:10:00;15.80;76.30
24426;DHT22;12611;44.446;26.000;2023-04-24T01:12:29;15.80;76.30
24426;DHT22;12611;44.446;26.000;2023-04-24T01:14:57;15.80;76.40
24426;DHT22;12611;44.446;26.000;2023-04-24T01:17:26;15.70;77.70
24426;DHT22;12611;44.446;26.000;2023-04-24T01:19:54;15.70;76.60
24426;DHT22;12611;44.446;26.000;2023-04-24T01:22:25;15.70;76.70
24426;DHT22;12611;44.446;26.000;2023-04-24T01:24:53;15.70;76.70
24426;DHT22;12611;44.446;26.000;2023-04-24T01:27:22;15.60;76.70
24426;DHT22;12611;44.446;26.000;2023-04-24T01:29:50;15.60;77.10
24426;DHT22;12611;44.446;26.000;2023-04-24T01:32:19;15.60;77.30
24426;DHT22;12611;44.446;26.000;2023-04-24T01:34:48;15.50;77.20
24426;DHT22;12611;44.446;26.000;2023-04-24T01:37:16;15.50;77.30
24426;DHT22;12611;44.446;26.000;2023-04-24T01:39:46;15.40;77.50
24426;DHT22;12611;44.446;26.000;2023-04-24T01:42:15;15.40;77.80
24426;DHT22;12611;44.446;26.000;2023-04-24T01:44:44;15.40;78.00
24426;DHT22;12611;44.446;26.000;2023-04-24T01:47:13;15.30;77.90
24426;DHT22;12611;44.446;26.000;2023-04-24T01:49:42;15.30;77.90
24426;DHT22;12611;44.446;26.000;2023-04-24T01:52:10;15.30;77.90
24426;DHT22;12611;44.446;26.000;2023-04-24T01:54:39;15.30;78.00
24426;DHT22;12611;44.446;26.000;2023-04-24T01:57:09;15.20;77.90
24426;DHT22;12611;44.446;26.000;2023-04-24T01:59:37;15.20;78.10
24426;DHT22;12611;44.446;26.000;2023-04-24T02:02:06;15.20;78.90
24426;DHT22;12611;44.446;26.000;2023-04-24T02:04:34;15.20;78.10
24426;DHT22;12611;44.446;26.000;2023-04-24T02:07:02;15.20;78.20
24426;DHT22;12611;44.446;26.000;2023-04-24T02:09:31;15.10;78.20
24426;DHT22;12611;44.446;26.000;2023-04-24T02:11:59;15.10;78.20
24426;DHT22;12611;44.446;26.000;2023-04-24T02:14:29;15.10;78.20
24426;DHT22;12611;44.446;26.000;2023-04-24T02:16:58;15.10;78.40
24426;DHT22;12611;44.446;26.000;2023-04-24T02:19:27;15.10;78.60
24426;DHT22;12611;44.446;26.000;2023-04-24T02:21:55;15.10;78.40
24426;DHT22;12611;44.446;26.000;2023-04-24T02:24:24;15.00;78.70
24426;DHT22;12611;44.446;26.000;2023-04-24T02:26:52;15.00;78.70
24426;DHT22;12611;44.446;26.000;2023-04-24T02:29:20;15.00;78.80
24426;DHT22;12611;44.446;26.000;2023-04-24T02:31:51;15.00;79.10
24426;DHT22;12611;44.446;26.000;2023-04-24T02:34:19;14.90;79.00
24426;DHT22;12611;44.446;26.000;2023-04-24T02:36:47;14.90;79.10
24426;DHT22;12611;44.446;26.000;2023-04-24T02:39:16;14.90;79.10
24426;DHT22;12611;44.446;26.000;2023-04-24T02:41:45;14.80;79.10
24426;DHT22;12611;44.446;26.000;2023-04-24T02:44:14;14.90;79.60
24426;DHT22;12611;44.446;26.000;2023-04-24T02:46:42;14.80;79.60
24426;DHT22;12611;44.446;26.000;2023-04-24T02:49:12;14.80;79.60
24426;DHT22;12611;44.446;26.000;2023-04-24T02:51:40;14.80;79.60
24426;DHT22;12611;44.446;26.000;2023-04-24T02:54:09;14.80;80.00
24426;DHT22;12611;44.446;26.000;2023-04-24T02:56:37;14.70;80.50
24426;DHT22;12611;44.446;26.000;2023-04-24T02:59:06;14.70;81.30
24426;DHT22;12611;44.446;26.000;2023-04-24T03:01:34;14.70;81.90
24426;DHT22;12611;44.446;26.000;2023-04-24T03:04:02;14.70;82.20
24426;DHT22;12611;44.446;26.000;2023-04-24T03:06:32;14.60;82.00
24426;DHT22;12611;44.446;26.000;2023-04-24T03:09:02;14.60;82.60
24426;DHT22;12611;44.446;26.000;2023-04-24T03:11:31;14.60;82.50
24426;DHT22;12611;44.446;26.000;2023-04-24T03:14:00;14.50;82.40
24426;DHT22;12611;44.446;26.000;2023-04-24T03:16:28;14.50;82.30
24426;DHT22;12611;44.446;26.000;2023-04-24T03:18:56;14.50;82.20
24426;DHT22;12611;44.446;26.000;2023-04-24T03:21:25;14.50;82.20
24426;DHT22;12611;44.446;26.000;2023-04-24T03:23:55;14.50;82.10
24426;DHT22;12611;44.446;26.000;2023-04-24T03:26:24;14.50;81.90
24426;DHT22;12611;44.446;26.000;2023-04-24T03:28:52;14.50;81.90
24426;DHT22;12611;44.446;26.000;2023-04-24T03:31:20;14.50;81.80
24426;DHT22;12611;44.446;26.000;2023-04-24T03:33:49;14.50;82.70
24426;DHT22;12611;44.446;26.000;2023-04-24T03:36:18;14.60;82.00
24426;DHT22;12611;44.446;26.000;2023-04-24T03:38:46;14.60;82.00
24426;DHT22;12611;44.446;26.000;2023-04-24T03:41:16;14.70;81.80
24426;DHT22;12611;44.446;26.000;2023-04-24T03:43:44;14.70;81.60
24426;DHT22;12611;44.446;26.000;2023-04-24T03:46:13;14.70;81.60
24426;DHT22;12611;44.446;26.000;2023-04-24T03:48:42;14.70;81.70
24426;DHT22;12611;44.446;26.000;2023-04-24T03:51:10;14.70;81.70
24426;DHT22;12611;44.446;26.000;2023-04-24T03:53:38;14.60;81.80
24426;DHT22;12611;44.446;26.000;2023-04-24T03:56:07;14.70;81.80
24426;DHT22;12611;44.446;26.000;2023-04-24T03:58:37;14.60;81.60
24426;DHT22;12611;44.446;26.000;2023-04-24T04:01:05;14.60;82.20
24426;DHT22;12611;44.446;26.000;2023-04-24T04:03:34;14.50;81.90
24426;DHT22;12611;44.446;26.000;2023-04-24T04:06:03;14.50;81.90
24426;DHT22;12611;44.446;26.000;2023-04-24T04:08:31;14.50;82.50
24426;DHT22;12611;44.446;26.000;2023-04-24T04:10:59;14.50;82.20
24426;DHT22;12611;44.446;26.000;2023-04-24T04:13:31;14.40;82.10
24426;DHT22;12611;44.446;26.000;2023-04-24T04:16:00;14.50;82.10
24426;DHT22;12611;44.446;26.000;2023-04-24T04:18:29;14.50;82.10
24426;DHT22;12611;44.446;26.000;2023-04-24T04:20:57;14.50;82.10
24426;DHT22;12611;44.446;26.000;2023-04-24T04:23:25;14.50;82.20
24426;DHT22;12611;44.446;26.000;2023-04-24T04:25:55;14.50;82.50
24426;DHT22;12611;44.446;26.000;2023-04-24T04:28:23;14.50;82.40
24426;DHT22;12611;44.446;26.000;2023-04-24T04:30:51;14.60;82.60
24426;DHT22;12611;44.446;26.000;2023-04-24T04:33:22;14.60;83.00
24426;DHT22;12611;44.446;26.000;2023-04-24T04:35:50;14.70;83.10
24426;DHT22;12611;44.446;26.000;2023-04-24T04:38:19;14.70;83.00
24426;DHT22;12611;44.446;26.000;2023-04-24T04:40:48;14.80;83.10
24426;DHT22;12611;44.446;26.000;2023-04-24T04:43:16;14.80;83.00
24426;DHT22;12611;44.446;26.000;2023-04-24T04:45:45;14.90;83.10
24426;DHT22;12611;44.446;26.000;2023-04-24T04:48:15;14.90;82.90
24426;DHT22;12611;44.446;26.000;2023-04-24T04:50:45;15.00;82.80
24426;DHT22;12611;44.446;26.000;2023-04-24T04:53:14;15.00;82.70
24426;DHT22;12611;44.446;26.000;2023-04-24T04:55:42;15.10;83.40
24426;DHT22;12611;44.446;26.000;2023-04-24T04:58:10;15.10;82.50
24426;DHT22;12611;44.446;26.000;2023-04-24T05:00:39;15.10;82.50
24426;DHT22;12611;44.446;26.000;2023-04-24T05:03:08;15.20;82.50
24426;DHT22;12611;44.446;26.000;2023-04-24T05:05:49;15.20;82.40
24426;DHT22;12611;44.446;26.000;2023-04-24T05:08:17;15.20;82.50
24426;DHT22;12611;44.446;26.000;2023-04-24T05:10:53;15.20;82.70
24426;DHT22;12611;44.446;26.000;2023-04-24T05:13:22;15.30;82.70
24426;DHT22;12611;44.446;26.000;2023-04-24T05:16:05;15.30;82.70
24426;DHT22;12611;44.446;26.000;2023-04-24T05:18:33;15.30;83.10
24426;DHT22;12611;44.446;26.000;2023-04-24T05:21:03;15.30;82.90
24426;DHT22;12611;44.446;26.000;2023-04-24T05:23:32;15.40;82.90
24426;DHT22;12611;44.446;26.000;2023-04-24T05:26:00;15.40;82.90
24426;DHT22;12611;44.446;26.000;2023-04-24T05:28:32;15.40;82.90
24426;DHT22;12611;44.446;26.000;2023-04-24T05:31:00;15.50;82.90
24426;DHT22;12611;44.446;26.000;2023-04-24T05:33:29;15.50;82.80
24426;DHT22;12611;44.446;26.000;2023-04-24T05:35:57;15.60;82.70
24426;DHT22;12611;44.446;26.000;2023-04-24T05:38:27;15.60;82.60
24426;DHT22;12611;44.446;26.000;2023-04-24T05:40:55;15.70;82.50
24426;DHT22;12611;44.446;26.000;2023-04-24T05:43:23;15.70;82.30
24426;DHT22;12611;44.446;26.000;2023-04-24T05:45:52;15.80;82.30
24426;DHT22;12611;44.446;26.000;2023-04-24T05:48:20;15.90;82.30
24426;DHT22;12611;44.446;26.000;2023-04-24T05:50:50;15.90;82.20
24426;DHT22;12611;44.446;26.000;2023-04-24T05:53:19;16.00;82.10
24426;DHT22;12611;44.446;26.000;2023-04-24T05:55:49;16.10;82.00
24426;DHT22;12611;44.446;26.000;2023-04-24T05:58:17;16.10;81.90
24426;DHT22;12611;44.446;26.000;2023-04-24T06:00:46;16.20;81.90
24426;DHT22;12611;44.446;26.000;2023-04-24T06:03:14;16.30;81.50
24426;DHT22;12611;44.446;26.000;2023-04-24T06:05:43;16.30;80.40
24426;DHT22;12611;44.446;26.000;2023-04-24T06:08:11;16.40;79.70
24426;DHT22;12611;44.446;26.000;2023-04-24T06:10:40;16.50;80.00
24426;DHT22;12611;44.446;26.000;2023-04-24T06:13:10;16.60;79.40
24426;DHT22;12611;44.446;26.000;2023-04-24T06:15:39;16.80;79.70
24426;DHT22;12611;44.446;26.000;2023-04-24T06:18:07;16.80;79.70
24426;DHT22;12611;44.446;26.000;2023-04-24T06:20:37;17.00;79.60
24426;DHT22;12611;44.446;26.000;2023-04-24T06:23:05;17.00;78.40
24426;DHT22;12611;44.446;26.000;2023-04-24T06:25:33;17.10;78.20
24426;DHT22;12611;44.446;26.000;2023-04-24T06:28:02;17.20;78.10
24426;DHT22;12611;44.446;26.000;2023-04-24T06:30:32;17.30;77.90
24426;DHT22;12611;44.446;26.000;2023-04-24T06:33:00;17.40;77.90
24426;DHT22;12611;44.446;26.000;2023-04-24T06:35:44;17.50;77.20
24426;DHT22;12611;44.446;26.000;2023-04-24T06:38:13;17.60;76.30
24426;DHT22;12611;44.446;26.000;2023-04-24T06:40:43;17.70;76.30
24426;DHT22;12611;44.446;26.000;2023-04-24T06:43:11;17.80;75.90
24426;DHT22;12611;44.446;26.000;2023-04-24T06:45:41;17.90;75.90
24426;DHT22;12611;44.446;26.000;2023-04-24T06:48:11;18.10;75.80
24426;DHT22;12611;44.446;26.000;2023-04-24T06:50:39;18.10;74.90
24426;DHT22;12611;44.446;26.000;2023-04-24T06:53:07;18.20;74.10
24426;DHT22;12611;44.446;26.000;2023-04-24T06:55:38;18.30;73.70
24426;DHT22;12611;44.446;26.000;2023-04-24T06:58:06;18.40;74.00
24426;DHT22;12611;44.446;26.000;2023-04-24T07:00:34;18.50;73.90
24426;DHT22;12611;44.446;26.000;2023-04-24T07:03:04;18.60;73.30
24426;DHT22;12611;44.446;26.000;2023-04-24T07:05:33;18.60;72.50
24426;DHT22;12611;44.446;26.000;2023-04-24T07:08:03;18.70;71.70
24426;DHT22;12611;44.446;26.000;2023-04-24T07:10:33;18.70;71.20
24426;DHT22;12611;44.446;26.000;2023-04-24T07:13:02;18.80;70.80
24426;DHT22;12611;44.446;26.000;2023-04-24T07:15:31;18.80;70.80
24426;DHT22;12611;44.446;26.000;2023-04-24T07:17:59;18.80;70.90
24426;DHT22;12611;44.446;26.000;2023-04-24T07:20:33;18.80;70.80
24426;DHT22;12611;44.446;26.000;2023-04-24T07:23:01;18.90;70.40
24426;DHT22;12611;44.446;26.000;2023-04-24T07:25:30;18.90;70.00
24426;DHT22;12611;44.446;26.000;2023-04-24T07:27:58;18.90;69.70
24426;DHT22;12611;44.446;26.000;2023-04-24T07:30:27;18.90;68.80
24426;DHT22;12611;44.446;26.000;2023-04-24T07:32:56;19.00;69.20
24426;DHT22;12611;44.446;26.000;2023-04-24T07:35:24;19.10;69.10
24426;DHT22;12611;44.446;26.000;2023-04-24T07:37:55;19.10;68.30
24426;DHT22;12611;44.446;26.000;2023-04-24T07:40:23;19.10;68.90
24426;DHT22;12611;44.446;26.000;2023-04-24T07:42:52;19.20;69.20
24426;DHT22;12611;44.446;26.000;2023-04-24T07:45:20;19.30;69.30
24426;DHT22;12611;44.446;26.000;2023-04-24T07:47:50;19.30;69.40
24426;DHT22;12611;44.446;26.000;2023-04-24T07:50:19;19.40;68.50
24426;DHT22;12611;44.446;26.000;2023-04-24T07:52:48;19.40;68.10
24426;DHT22;12611;44.446;26.000;2023-04-24T07:55:17;19.40;68.20
24426;DHT22;12611;44.446;26.000;2023-04-24T07:57:50;19.50;68.60
24426;DHT22;12611;44.446;26.000;2023-04-24T08:00:19;19.50;68.20
24426;DHT22;12611;44.446;26.000;2023-04-24T08:02:48;19.60;67.80
24426;DHT22;12611;44.446;26.000;2023-04-24T08:05:16;19.60;67.60
24426;DHT22;12611;44.446;26.000;2023-04-24T08:07:45;19.70;66.60
24426;DHT22;12611;44.446;26.000;2023-04-24T08:10:17;19.70;66.80
24426;DHT22;12611;44.446;26.000;2023-04-24T08:12:45;19.80;66.90
24426;DHT22;12611;44.446;26.000;2023-04-24T08:15:14;19.90;66.70
24426;DHT22;12611;44.446;26.000;2023-04-24T08:17:42;19.90;66.10
24426;DHT22;12611;44.446;26.000;2023-04-24T08:20:11;20.00;66.10
24426;DHT22;12611;44.446;26.000;2023-04-24T08:22:41;20.10;65.90
24426;DHT22;12611;44.446;26.000;2023-04-24T08:25:10;20.10;64.90
24426;DHT22;12611;44.446;26.000;2023-04-24T08:27:40;20.20;65.90
24426;DHT22;12611;44.446;26.000;2023-04-24T08:30:12;20.20;65.20
24426;DHT22;12611;44.446;26.000;2023-04-24T08:32:40;20.30;65.40
24426;DHT22;12611;44.446;26.000;2023-04-24T08:35:09;20.40;65.20
24426;DHT22;12611;44.446;26.000;2023-04-24T08:37:37;20.40;64.30
24426;DHT22;12611;44.446;26.000;2023-04-24T08:40:12;20.40;63.70
24426;DHT22;12611;44.446;26.000;2023-04-24T08:42:43;20.60;64.20
24426;DHT22;12611;44.446;26.000;2023-04-24T08:45:13;20.60;64.80
24426;DHT22;12611;44.446;26.000;2023-04-24T08:47:42;20.70;64.20
24426;DHT22;12611;44.446;26.000;2023-04-24T08:50:11;20.70;63.00
24426;DHT22;12611;44.446;26.000;2023-04-24T08:52:40;20.70;62.90
24426;DHT22;12611;44.446;26.000;2023-04-24T08:55:09;20.80;63.10
24426;DHT22;12611;44.446;26.000;2023-04-24T08:57:38;20.90;63.40
24426;DHT22;12611;44.446;26.000;2023-04-24T09:00:10;21.00;63.50
24426;DHT22;12611;44.446;26.000;2023-04-24T09:02:41;21.10;63.20
24426;DHT22;12611;44.446;26.000;2023-04-24T09:05:11;21.20;62.70
24426;DHT22;12611;44.446;26.000;2023-04-24T09:07:41;21.30;62.20
24426;DHT22;12611;44.446;26.000;2023-04-24T09:10:11;21.30;59.90
24426;DHT22;12611;44.446;26.000;2023-04-24T09:12:41;21.30;59.70
24426;DHT22;12611;44.446;26.000;2023-04-24T09:15:11;21.40;59.10
24426;DHT22;12611;44.446;26.000;2023-04-24T09:17:40;21.40;58.70
24426;DHT22;12611;44.446;26.000;2023-04-24T09:20:09;21.40;58.40
24426;DHT22;12611;44.446;26.000;2023-04-24T09:22:37;21.50;59.00
24426;DHT22;12611;44.446;26.000;2023-04-24T09:25:07;21.50;59.60
24426;DHT22;12611;44.446;26.000;2023-04-24T09:27:36;21.50;59.50
24426;DHT22;12611;44.446;26.000;2023-04-24T09:30:05;21.60;60.00
24426;DHT22;12611;44.446;26.000;2023-04-24T09:32:36;21.60;60.00
24426;DHT22;12611;44.446;26.000;2023-04-24T09:35:19;21.70;59.70
24426;DHT22;12611;44.446;26.000;2023-04-24T09:37:47;21.60;59.10
24426;DHT22;12611;44.446;26.000;2023-04-24T09:40:18;21.70;59.30
24426;DHT22;12611;44.446;26.000;2023-04-24T09:42:52;21.80;59.20
24426;DHT22;12611;44.446;26.000;2023-04-24T09:45:20;21.90;59.20
24426;DHT22;12611;44.446;26.000;2023-04-24T09:47:53;21.90;57.70
24426;DHT22;12611;44.446;26.000;2023-04-24T09:50:22;22.00;57.00
24426;DHT22;12611;44.446;26.000;2023-04-24T09:52:57;22.00;53.00
24426;DHT22;12611;44.446;26.000;2023-04-24T09:55:26;22.10;54.50
24426;DHT22;12611;44.446;26.000;2023-04-24T09:57:56;22.10;54.90
24426;DHT22;12611;44.446;26.000;2023-04-24T10:00:26;22.20;54.40
24426;DHT22;12611;44.446;26.000;2023-04-24T10:02:57;22.20;55.30
24426;DHT22;12611;44.446;26.000;2023-04-24T10:05:28;22.30;55.40
24426;DHT22;12611;44.446;26.000;2023-04-24T10:07:57;22.30;55.30
24426;DHT22;12611;44.446;26.000;2023-04-24T10:10:26;22.30;57.30
24426;DHT22;12611;44.446;26.000;2023-04-24T10:12:55;22.40;55.50
24426;DHT22;12611;44.446;26.000;2023-04-24T10:15:24;22.40;54.70
24426;DHT22;12611;44.446;26.000;2023-04-24T10:17:55;22.50;55.40
24426;DHT22;12611;44.446;26.000;2023-04-24T10:20:28;22.50;51.20
24426;DHT22;12611;44.446;26.000;2023-04-24T10:22:59;22.50;52.30
24426;DHT22;12611;44.446;26.000;2023-04-24T10:25:31;22.50;52.60
24426;DHT22;12611;44.446;26.000;2023-04-24T10:28:01;22.50;51.70
24426;DHT22;12611;44.446;26.000;2023-04-24T10:30:30;22.50;51.50
24426;DHT22;12611;44.446;26.000;2023-04-24T10:33:03;22.50;51.50
24426;DHT22;12611;44.446;26.000;2023-04-24T10:35:34;22.60;51.90
24426;DHT22;12611;44.446;26.000;2023-04-24T10:38:06;22.60;51.50
24426;DHT22;12611;44.446;26.000;2023-04-24T10:40:36;22.70;51.90
24426;DHT22;12611;44.446;26.000;2023-04-24T10:43:05;22.70;51.80
24426;DHT22;12611;44.446;26.000;2023-04-24T10:45:35;22.80;52.30
24426;DHT22;12611;44.446;26.000;2023-04-24T10:48:06;22.80;52.80
24426;DHT22;12611;44.446;26.000;2023-04-24T10:50:46;22.80;52.50
24426;DHT22;12611;44.446;26.000;2023-04-24T10:53:16;22.90;52.60
24426;DHT22;12611;44.446;26.000;2023-04-24T10:55:47;23.00;53.00
24426;DHT22;12611;44.446;26.000;2023-04-24T10:58:16;23.10;52.50
24426;DHT22;12611;44.446;26.000;2023-04-24T11:00:56;23.10;52.30
24426;DHT22;12611;44.446;26.000;2023-04-24T11:03:27;23.20;52.60
24426;DHT22;12611;44.446;26.000;2023-04-24T11:05:58;23.30;52.10
24426;DHT22;12611;44.446;26.000;2023-04-24T11:08:29;23.30;51.30
24426;DHT22;12611;44.446;26.000;2023-04-24T11:11:00;23.40;51.70
24426;DHT22;12611;44.446;26.000;2023-04-24T11:16:32;23.40;50.70
24426;DHT22;12611;44.446;26.000;2023-04-24T11:19:04;23.40;50.40
24426;DHT22;12611;44.446;26.000;2023-04-24T11:21:42;23.40;50.30
24426;DHT22;12611;44.446;26.000;2023-04-24T11:24:30;23.50;50.70
24426;DHT22;12611;44.446;26.000;2023-04-24T11:27:06;23.60;51.30
24426;DHT22;12611;44.446;26.000;2023-04-24T11:29:48;23.60;51.40
24426;DHT22;12611;44.446;26.000;2023-04-24T11:32:25;23.60;51.00
24426;DHT22;12611;44.446;26.000;2023-04-24T11:34:57;23.60;51.10
24426;DHT22;12611;44.446;26.000;2023-04-24T11:37:27;23.70;51.30
24426;DHT22;12611;44.446;26.000;2023-04-24T11:39:57;23.70;50.20
24426;DHT22;12611;44.446;26.000;2023-04-24T11:42:28;23.80;51.70
24426;DHT22;12611;44.446;26.000;2023-04-24T11:44:56;23.80;50.70
24426;DHT22;12611;44.446;26.000;2023-04-24T11:47:28;23.80;50.30
24426;DHT22;12611;44.446;26.000;2023-04-24T11:50:00;23.80;50.00
24426;DHT22;12611;44.446;26.000;2023-04-24T11:52:30;23.90;49.90
24426;DHT22;12611;44.446;26.000;2023-04-24T11:54:59;23.90;49.30
24426;DHT22;12611;44.446;26.000;2023-04-24T11:57:28;24.00;50.60
24426;DHT22;12611;44.446;26.000;2023-04-24T12:00:00;24.00;50.10
24426;DHT22;12611;44.446;26.000;2023-04-24T12:02:31;24.10;49.90
24426;DHT22;12611;44.446;26.000;2023-04-24T12:05:01;24.10;48.90
24426;DHT22;12611;44.446;26.000;2023-04-24T12:07:40;24.20;50.00
24426;DHT22;12611;44.446;26.000;2023-04-24T12:10:09;24.30;50.40
24426;DHT22;12611;44.446;26.000;2023-04-24T12:12:38;24.30;50.40
24426;DHT22;12611;44.446;26.000;2023-04-24T12:15:07;24.50;50.10
24426;DHT22;12611;44.446;26.000;2023-04-24T12:17:41;24.50;49.80
24426;DHT22;12611;44.446;26.000;2023-04-24T12:20:12;24.60;48.40
24426;DHT22;12611;44.446;26.000;2023-04-24T12:22:45;24.60;49.00
24426;DHT22;12611;44.446;26.000;2023-04-24T12:25:16;24.60;48.90
24426;DHT22;12611;44.446;26.000;2023-04-24T12:27:45;24.60;49.40
24426;DHT22;12611;44.446;26.000;2023-04-24T12:30:15;24.60;49.40
24426;DHT22;12611;44.446;26.000;2023-04-24T12:32:46;24.60;48.70
24426;DHT22;12611;44.446;26.000;2023-04-24T12:35:19;24.50;48.30
24426;DHT22;12611;44.446;26.000;2023-04-24T12:37:48;24.50;49.40
24426;DHT22;12611;44.446;26.000;2023-04-24T12:40:18;24.50;48.30
24426;DHT22;12611;44.446;26.000;2023-04-24T12:42:48;24.50;47.80
24426;DHT22;12611;44.446;26.000;2023-04-24T12:45:18;24.50;48.30
24426;DHT22;12611;44.446;26.000;2023-04-24T12:47:46;24.50;48.30
24426;DHT22;12611;44.446;26.000;2023-04-24T12:50:18;24.40;47.30
24426;DHT22;12611;44.446;26.000;2023-04-24T12:52:46;24.30;47.30
24426;DHT22;12611;44.446;26.000;2023-04-24T12:55:15;24.30;48.40
24426;DHT22;12611;44.446;26.000;2023-04-24T12:57:43;24.40;49.20
24426;DHT22;12611;44.446;26.000;2023-04-24T13:00:12;24.50;49.40
24426;DHT22;12611;44.446;26.000;2023-04-24T13:02:42;24.50;49.10
24426;DHT22;12611;44.446;26.000;2023-04-24T13:05:10;24.40;48.60
24426;DHT22;12611;44.446;26.000;2023-04-24T13:07:42;24.40;48.10
24426;DHT22;12611;44.446;26.000;2023-04-24T13:10:10;24.40;48.60
24426;DHT22;12611;44.446;26.000;2023-04-24T13:12:40;24.30;48.80
24426;DHT22;12611;44.446;26.000;2023-04-24T13:15:12;24.30;49.40
24426;DHT22;12611;44.446;26.000;2023-04-24T13:17:40;24.20;49.30
24426;DHT22;12611;44.446;26.000;2023-04-24T13:20:09;24.30;49.90
24426;DHT22;12611;44.446;26.000;2023-04-24T13:22:38;24.30;50.00
24426;DHT22;12611;44.446;26.000;2023-04-24T13:25:08;24.20;48.50
24426;DHT22;12611;44.446;26.000;2023-04-24T13:27:38;24.20;48.30
24426;DHT22;12611;44.446;26.000;2023-04-24T13:30:08;24.10;48.40
24426;DHT22;12611;44.446;26.000;2023-04-24T13:32:36;24.20;48.70
24426;DHT22;12611;44.446;26.000;2023-04-24T13:35:05;24.10;48.10
24426;DHT22;12611;44.446;26.000;2023-04-24T13:37:34;24.10;48.40
24426;DHT22;12611;44.446;26.000;2023-04-24T13:40:02;24.20;48.30
24426;DHT22;12611;44.446;26.000;2023-04-24T13:42:35;24.20;48.70
24426;DHT22;12611;44.446;26.000;2023-04-24T13:45:06;24.20;49.10
24426;DHT22;12611;44.446;26.000;2023-04-24T13:47:50;24.20;48.40
24426;DHT22;12611;44.446;26.000;2023-04-24T13:50:19;24.10;48.30
24426;DHT22;12611;44.446;26.000;2023-04-24T13:52:47;24.10;48.60
24426;DHT22;12611;44.446;26.000;2023-04-24T13:55:16;24.10;48.60
24426;DHT22;12611;44.446;26.000;2023-04-24T13:57:46;23.90;48.40
24426;DHT22;12611;44.446;26.000;2023-04-24T14:00:15;23.90;48.70
24426;DHT22;12611;44.446;26.000;2023-04-24T14:02:43;23.80;48.90
24426;DHT22;12611;44.446;26.000;2023-04-24T14:05:12;23.80;49.10
24426;DHT22;12611;44.446;26.000;2023-04-24T14:07:42;23.80;49.30
24426;DHT22;12611;44.446;26.000;2023-04-24T14:10:10;23.80;49.30
24426;DHT22;12611;44.446;26.000;2023-04-24T14:12:39;23.80;49.70
24426;DHT22;12611;44.446;26.000;2023-04-24T14:15:09;23.90;49.70
24426;DHT22;12611;44.446;26.000;2023-04-24T14:17:40;23.90;49.90
24426;DHT22;12611;44.446;26.000;2023-04-24T14:20:09;24.10;50.10
24426;DHT22;12611;44.446;26.000;2023-04-24T14:22:38;24.10;50.30
24426;DHT22;12611;44.446;26.000;2023-04-24T14:25:07;24.30;50.50
24426;DHT22;12611;44.446;26.000;2023-04-24T14:27:35;24.30;50.30
24426;DHT22;12611;44.446;26.000;2023-04-24T14:30:05;24.40;50.00
24426;DHT22;12611;44.446;26.000;2023-04-24T14:32:35;24.50;50.30
24426;DHT22;12611;44.446;26.000;2023-04-24T14:35:04;24.50;49.40
24426;DHT22;12611;44.446;26.000;2023-04-24T14:37:33;24.80;50.10
24426;DHT22;12611;44.446;26.000;2023-04-24T14:40:01;25.30;49.60
24426;DHT22;12611;44.446;26.000;2023-04-24T14:42:50;25.30;49.10
24426;DHT22;12611;44.446;26.000;2023-04-24T14:45:18;25.30;49.40
24426;DHT22;12611;44.446;26.000;2023-04-24T14:47:52;25.20;49.70
24426;DHT22;12611;44.446;26.000;2023-04-24T14:50:21;25.20;49.50
24426;DHT22;12611;44.446;26.000;2023-04-24T14:52:50;25.10;48.70
24426;DHT22;12611;44.446;26.000;2023-04-24T14:55:19;25.20;48.60
24426;DHT22;12611;44.446;26.000;2023-04-24T14:57:47;25.80;48.70
24426;DHT22;12611;44.446;26.000;2023-04-24T15:00:17;26.10;48.40
24426;DHT22;12611;44.446;26.000;2023-04-24T15:02:45;25.90;47.80
24426;DHT22;12611;44.446;26.000;2023-04-24T15:05:15;25.70;48.20
24426;DHT22;12611;44.446;26.000;2023-04-24T15:07:44;25.70;48.60
24426;DHT22;12611;44.446;26.000;2023-04-24T15:10:13;26.00;48.30
24426;DHT22;12611;44.446;26.000;2023-04-24T15:12:41;25.90;47.70
24426;DHT22;12611;44.446;26.000;2023-04-24T15:15:10;25.80;47.90
24426;DHT22;12611;44.446;26.000;2023-04-24T15:17:38;25.60;48.40
24426;DHT22;12611;44.446;26.000;2023-04-24T15:20:07;25.40;48.50
24426;DHT22;12611;44.446;26.000;2023-04-24T15:22:37;25.30;48.60
24426;DHT22;12611;44.446;26.000;2023-04-24T15:25:07;25.10;48.90
24426;DHT22;12611;44.446;26.000;2023-04-24T15:27:42;25.00;49.30
24426;DHT22;12611;44.446;26.000;2023-04-24T15:30:12;24.90;49.20
24426;DHT22;12611;44.446;26.000;2023-04-24T15:32:40;24.80;49.30